This is the latest recevied weather packets stored in our database for station/object R6HABA-13. If no packets are shown the sender has not sent any weather packets the latest 10 day(s).
| Time | Temp. | Humidity | Pressure | Rain* | Wind** | Luminosity | Snow |
|---|---|---|---|---|---|---|---|
| 1777967103 | 21.11° C | 56% | 1009 hPa | - | 3.13 m/s, 248° | - | - |
| 1777966203 | 17.78° C | 62% | 1009 hPa | - | 3.58 m/s, 239° | - | - |
| 1777965303 | 17.78° C | 62% | 1009 hPa | - | 3.58 m/s, 239° | - | - |
| 1777964403 | 17.78° C | 62% | 1009 hPa | - | 3.58 m/s, 239° | - | - |
| 1777962603 | 17.78° C | 62% | 1009 hPa | - | 3.58 m/s, 239° | - | - |
| 1777961703 | 17.78° C | 62% | 1009 hPa | - | 3.58 m/s, 239° | - | - |
| 1777960803 | 17.78° C | 62% | 1009 hPa | - | 3.58 m/s, 239° | - | - |
| 1777959903 | 18.33° C | 62% | 1009 hPa | - | 3.58 m/s, 239° | - | - |
| 1777959002 | 13.89° C | 75% | 1009 hPa | - | 2.24 m/s, 214° | - | - |
| 1777958103 | 13.89° C | 75% | 1009 hPa | - | 2.24 m/s, 214° | - | - |
| 1777957202 | 13.89° C | 75% | 1009 hPa | - | 2.24 m/s, 214° | - | - |
| 1777956303 | 13.89° C | 75% | 1009 hPa | - | 2.24 m/s, 214° | - | - |
| 1777955402 | 13.89° C | 75% | 1009 hPa | - | 2.24 m/s, 214° | - | - |
| 1777954503 | 13.89° C | 75% | 1010 hPa | - | 2.24 m/s, 214° | - | - |
| 1777954127 | -17.78° C | - | 0 hPa | - | 0 m/s | - | - |
| 1777943703 | 13.89° C | 75% | 1010 hPa | - | 2.24 m/s, 214° | - | - |
| 1777942803 | 13.89° C | 75% | 1010 hPa | - | 2.24 m/s, 214° | - | - |
| 1777928926 | 16.11° C | - | 0 hPa | - | 0 m/s | - | - |
| 1777917603 | 16.67° C | 67% | 1010 hPa | - | 2.68 m/s, 216° | - | - |
| 1777913625 | -17.78° C | 65% | 0 hPa | - | 0 m/s | - | - |
| 1777901403 | 23.89° C | 50% | 1011 hPa | - | 3.13 m/s, 266° | - | - |
| 1777900503 | 23.89° C | 50% | 1011 hPa | - | 3.13 m/s, 266° | - | - |
| 1777897803 | 23.89° C | 50% | 1011 hPa | - | 3.13 m/s, 266° | - | - |
| 1777896903 | 23.89° C | 50% | 1011 hPa | - | 3.13 m/s, 266° | - | - |
| 1777895104 | 20.56° C | 52% | 1011 hPa | - | 2.24 m/s, 249° | - | - |
* Rain since midnight (hover to see other rain measurements)
** Current wind speed in m/s (hover to see current wind gust speed)